TimeEDT,TemperatureF,Dew PointF,Humidity,Sea Level PressureIn,VisibilityMPH,Wind Direction,Wind SpeedMPH,Gust SpeedMPH,PrecipitationIn,Events,Conditions,WindDirDegrees,DateUTC
12:52 AM,23.0,12.0,63,30.39,10.0,ESE,6.9,-,N/A,,Clear,110,2013-04-04 04:52:00
1:52 AM,24.1,10.9,57,30.37,10.0,ESE,6.9,-,N/A,,Clear,120,2013-04-04 05:52:00
2:52 AM,24.1,12.0,60,30.38,10.0,SSE,6.9,-,N/A,,Clear,150,2013-04-04 06:52:00
3:52 AM,24.1,12.0,60,30.38,10.0,SSE,3.5,-,N/A,,Clear,150,2013-04-04 07:52:00
4:52 AM,23.0,12.9,65,30.35,10.0,SE,5.8,-,N/A,,Clear,130,2013-04-04 08:52:00
5:52 AM,24.1,10.9,57,30.34,10.0,SE,5.8,-,N/A,,Clear,140,2013-04-04 09:52:00
6:52 AM,23.0,10.9,60,30.32,10.0,SE,6.9,-,N/A,,Clear,130,2013-04-04 10:52:00
7:52 AM,25.0,12.9,60,30.31,10.0,SE,6.9,-,N/A,,Clear,130,2013-04-04 11:52:00
8:52 AM,28.9,14.0,54,30.30,10.0,SSE,9.2,-,N/A,,Clear,150,2013-04-04 12:52:00
9:52 AM,32.0,14.0,48,30.27,10.0,SE,6.9,-,N/A,,Clear,130,2013-04-04 13:52:00
10:52 AM,35.1,12.0,39,30.25,10.0,ESE,5.8,-,N/A,,Clear,120,2013-04-04 14:52:00
11:52 AM,41.0,10.0,28,30.22,10.0,SSE,8.1,-,N/A,,Clear,150,2013-04-04 15:52:00
12:52 PM,43.0,12.0,28,30.18,10.0,South,6.9,-,N/A,,Clear,180,2013-04-04 16:52:00
1:52 PM,46.0,9.0,22,30.15,10.0,Variable,3.5,-,N/A,,Clear,0,2013-04-04 17:52:00
2:52 PM,51.1,7.0,17,30.10,10.0,SE,5.8,-,N/A,,Clear,140,2013-04-04 18:52:00
3:52 PM,53.1,6.1,15,30.06,10.0,South,6.9,-,N/A,,Clear,190,2013-04-04 19:52:00
4:52 PM,53.1,5.0,14,30.04,10.0,Variable,3.5,-,N/A,,Clear,0,2013-04-04 20:52:00
5:52 PM,53.1,6.1,15,30.02,10.0,South,5.8,-,N/A,,Clear,170,2013-04-04 21:52:00
6:52 PM,51.1,8.1,18,30.03,10.0,SW,8.1,-,N/A,,Clear,220,2013-04-04 22:52:00
7:52 PM,45.0,12.9,27,30.03,10.0,SSW,8.1,-,N/A,,Clear,200,2013-04-04 23:52:00
8:52 PM,44.1,10.9,26,30.02,10.0,SW,4.6,-,N/A,,Clear,220,2013-04-05 00:52:00
9:52 PM,37.9,16.0,41,30.02,10.0,South,5.8,-,N/A,,Clear,180,2013-04-05 01:52:00
10:52 PM,41.0,12.0,31,30.01,10.0,SSW,4.6,-,N/A,,Clear,210,2013-04-05 02:52:00
11:52 PM,36.0,14.0,41,29.99,10.0,SSW,4.6,-,N/A,,Clear,200,2013-04-05 03:52:00